Time;durP1;ratioP1;P1;durP2;ratioP2;P2;SDS_P1;SDS_P2;PMS_P1;PMS_P2;Temp;Humidity;BMP_temperature;BMP_pressure;BME280_temperature;BME280_humidity;BME280_pressure;Samples;Min_cycle;Max_cycle;Signal;HPM_P1;HPM_P2
2022/12/10 00:02:10;;;;;;;21.57;16.20;;;1.40;99.90;;;;;;4996844;28;20229;-68
2022/12/10 00:04:35;;;;;;;19.27;15.27;;;1.30;99.90;;;;;;4997621;28;20231;-68
2022/12/10 00:07:01;;;;;;;20.40;15.63;;;1.40;99.90;;;;;;4999845;28;20189;-68
2022/12/10 00:09:27;;;;;;;20.80;14.80;;;1.40;99.90;;;;;;4995181;28;20209;-69
2022/12/10 00:11:52;;;;;;;20.97;14.93;;;1.40;99.90;;;;;;5001204;28;20233;-69
2022/12/10 00:14:18;;;;;;;18.30;14.50;;;1.40;99.90;;;;;;4995137;28;20192;-67
2022/12/10 00:16:43;;;;;;;21.25;14.32;;;1.40;99.90;;;;;;5001732;28;20181;-69
2022/12/10 00:19:09;;;;;;;22.05;14.35;;;1.40;99.90;;;;;;4999257;28;20205;-68
2022/12/10 00:21:36;;;;;;;20.60;15.23;;;1.50;99.90;;;;;;5006182;28;20193;-68
2022/12/10 00:24:03;;;;;;;20.90;14.87;;;1.60;99.90;;;;;;5001163;28;20178;-69
2022/12/10 00:26:35;;;;;;;19.83;14.97;;;1.60;99.90;;;;;;5000457;28;20185;-68
2022/12/10 00:29:03;;;;;;;20.77;15.30;;;1.60;99.90;;;;;;5001684;28;20658;-68
2022/12/10 00:31:32;;;;;;;16.97;14.57;;;1.60;99.90;;;;;;4997548;28;20181;-67
2022/12/10 00:34:00;;;;;;;17.00;13.45;;;1.50;99.90;;;;;;5002148;28;20197;-69
2022/12/10 00:36:31;;;;;;;20.50;15.90;;;1.60;99.90;;;;;;5000993;28;20230;-68
2022/12/10 00:38:57;;;;;;;22.38;16.23;;;1.60;99.90;;;;;;4998694;28;20193;-68
2022/12/10 00:41:23;;;;;;;20.80;15.05;;;1.60;99.90;;;;;;5000366;28;20181;-68
2022/12/10 00:43:48;;;;;;;21.27;14.85;;;1.60;99.90;;;;;;5006962;28;20189;-68
2022/12/10 00:46:15;;;;;;;18.98;14.65;;;1.70;99.90;;;;;;5003447;28;20187;-69
2022/12/10 00:48:42;;;;;;;20.60;16.42;;;1.70;99.90;;;;;;5000688;28;20208;-68
2022/12/10 00:51:19;;;;;;;20.55;15.07;;;1.70;99.90;;;;;;5002020;28;20194;-68
2022/12/10 00:53:46;;;;;;;18.38;13.93;;;1.60;99.90;;;;;;5002237;28;20204;-69
2022/12/10 00:56:13;;;;;;;17.13;14.73;;;1.70;99.90;;;;;;5002495;28;20312;-68
2022/12/10 00:58:39;;;;;;;20.60;14.57;;;1.60;99.90;;;;;;5000586;28;20196;-68
2022/12/10 01:01:22;;;;;;;20.23;15.23;;;1.70;99.90;;;;;;5003404;28;20180;-68
2022/12/10 01:03:50;;;;;;;17.30;13.57;;;1.70;99.90;;;;;;5002671;28;20585;-69
2022/12/10 01:06:19;;;;;;;20.17;15.17;;;1.70;99.90;;;;;;5010085;28;20581;-68
2022/12/10 01:08:46;;;;;;;17.77;14.33;;;1.80;99.90;;;;;;5002931;28;20267;-69
2022/12/10 01:11:13;;;;;;;18.17;14.05;;;1.80;99.90;;;;;;5006990;28;20182;-69
2022/12/10 01:13:41;;;;;;;25.27;16.15;;;1.90;99.90;;;;;;5005842;28;20248;-69
2022/12/10 01:16:08;;;;;;;19.38;15.35;;;1.80;99.90;;;;;;5006937;28;20199;-68
2022/12/10 01:18:34;;;;;;;20.45;15.38;;;1.70;99.90;;;;;;5007248;28;20277;-69
2022/12/10 01:21:05;;;;;;;23.20;16.25;;;1.60;99.90;;;;;;5006627;28;20269;-68
2022/12/10 01:23:35;;;;;;;21.67;15.43;;;1.50;99.90;;;;;;4999451;28;20235;-69
2022/12/10 01:26:07;;;;;;;20.02;15.27;;;1.50;99.90;;;;;;5007025;28;20181;-68
2022/12/10 01:28:35;;;;;;;21.05;15.57;;;1.50;99.90;;;;;;5006531;28;20564;-68
2022/12/10 01:31:03;;;;;;;20.27;15.40;;;1.60;99.90;;;;;;5015666;28;20181;-68
2022/12/10 01:33:29;;;;;;;21.45;17.02;;;1.50;99.90;;;;;;5009116;28;20218;-71
2022/12/10 01:35:55;;;;;;;20.60;15.52;;;1.60;99.90;;;;;;5008075;28;20248;-70
2022/12/10 01:38:20;;;;;;;19.80;15.60;;;1.50;99.90;;;;;;5008728;28;20197;-70
2022/12/10 01:40:46;;;;;;;27.80;18.73;;;1.50;99.90;;;;;;5010813;28;20213;-71
2022/12/10 01:43:14;;;;;;;21.23;16.10;;;1.50;99.90;;;;;;5012455;28;20195;-71
2022/12/10 01:45:39;;;;;;;21.73;16.83;;;1.60;99.90;;;;;;5008501;28;20192;-71
2022/12/10 01:48:05;;;;;;;22.63;16.77;;;1.60;99.90;;;;;;5015715;28;20201;-71
2022/12/10 01:50:31;;;;;;;23.87;16.57;;;1.50;99.90;;;;;;5009343;28;20242;-71
2022/12/10 01:52:57;;;;;;;25.20;17.77;;;1.60;99.90;;;;;;5009390;28;20216;-71
2022/12/10 01:56:01;;;;;;;19.30;15.73;;;1.60;99.90;;;;;;5016755;28;20191;-71
2022/12/10 01:58:27;;;;;;;20.88;16.17;;;1.60;99.90;;;;;;4969942;28;20626;-71
2022/12/10 02:01:22;;;;;;;23.65;16.17;;;1.60;99.90;;;;;;4971569;28;20178;-72
2022/12/10 02:04:22;;;;;;;23.15;17.55;;;1.70;99.90;;;;;;4994593;28;20235;-71
2022/12/10 02:06:59;;;;;;;22.80;17.60;;;1.80;99.90;;;;;;5005862;28;20193;-71
2022/12/10 02:09:24;;;;;;;26.85;17.88;;;1.70;99.90;;;;;;5012097;28;20210;-71
2022/12/10 02:12:05;;;;;;;25.85;17.05;;;1.70;99.90;;;;;;5005688;28;20205;-71
2022/12/10 02:15:13;;;;;;;25.80;18.38;;;1.70;99.90;;;;;;5016667;28;20169;-71
2022/12/10 02:17:56;;;;;;;24.15;17.50;;;1.80;99.90;;;;;;5001844;28;20215;-70
2022/12/10 02:20:33;;;;;;;23.88;17.88;;;1.70;99.90;;;;;;5018607;28;20165;-69
2022/12/10 02:23:08;;;;;;;24.85;17.60;;;1.70;99.90;;;;;;5013947;28;20181;-69
2022/12/10 02:26:18;;;;;;;25.98;18.25;;;1.70;99.90;;;;;;5008046;28;20215;-69
2022/12/10 02:29:10;;;;;;;23.33;17.38;;;1.70;99.90;;;;;;4954047;28;20215;-69
2022/12/10 02:31:38;;;;;;;24.07;17.77;;;1.70;99.90;;;;;;4953552;28;20179;-68
2022/12/10 02:34:06;;;;;;;22.42;16.40;;;1.80;99.90;;;;;;4994571;28;20690;-68
2022/12/10 02:36:37;;;;;;;24.55;17.58;;;1.80;99.90;;;;;;5010622;28;20220;-68
2022/12/10 02:39:06;;;;;;;27.35;18.50;;;1.90;99.90;;;;;;5014547;28;20197;-68
2022/12/10 02:41:40;;;;;;;25.90;18.53;;;1.80;99.90;;;;;;5007473;28;20721;-68
2022/12/10 02:44:10;;;;;;;26.25;19.15;;;1.80;99.90;;;;;;5000864;28;20227;-68
2022/12/10 02:46:38;;;;;;;24.98;17.50;;;1.70;99.90;;;;;;5009840;28;20197;-69
2022/12/10 02:49:06;;;;;;;28.88;18.95;;;1.70;99.90;;;;;;5007951;28;20236;-69
2022/12/10 02:51:32;;;;;;;27.15;19.33;;;1.70;99.90;;;;;;5003906;28;20182;-68
2022/12/10 02:54:03;;;;;;;24.50;17.85;;;1.70;99.90;;;;;;5005311;28;20565;-68
2022/12/10 02:56:36;;;;;;;23.73;18.45;;;1.70;99.90;;;;;;5005778;28;20688;-69
2022/12/10 02:59:40;;;;;;;27.05;18.23;;;1.70;99.90;;;;;;5009611;28;20686;-68
2022/12/10 03:02:44;;;;;;;27.50;19.27;;;1.70;99.90;;;;;;4945758;28;20203;-67
2022/12/10 03:05:27;;;;;;;27.83;19.80;;;1.60;99.90;;;;;;5004447;28;20180;-68
2022/12/10 03:07:52;;;;;;;28.80;20.00;;;1.50;99.90;;;;;;5007613;28;20220;-68
2022/12/10 03:10:24;;;;;;;31.27;20.80;;;1.50;99.90;;;;;;5008316;28;20180;-68
2022/12/10 03:12:56;;;;;;;28.55;20.05;;;1.50;99.90;;;;;;5002149;28;20210;-68
2022/12/10 03:15:24;;;;;;;25.57;17.93;;;1.50;99.90;;;;;;5009140;28;20184;-68
2022/12/10 03:17:51;;;;;;;28.60;19.53;;;1.60;99.90;;;;;;5005210;28;20207;-69
2022/12/10 03:20:17;;;;;;;27.70;19.55;;;1.60;99.90;;;;;;5008848;28;20185;-69
2022/12/10 03:22:46;;;;;;;31.60;22.57;;;1.70;99.90;;;;;;5010173;28;20185;-68
2022/12/10 03:25:16;;;;;;;28.10;19.48;;;1.70;99.90;;;;;;5006775;28;20185;-69
2022/12/10 03:27:43;;;;;;;28.53;19.60;;;1.60;99.90;;;;;;5006604;28;20243;-68
2022/12/10 03:30:09;;;;;;;26.20;17.83;;;1.50;99.90;;;;;;5003406;28;20169;-69
2022/12/10 03:32:36;;;;;;;27.27;19.45;;;1.50;99.90;;;;;;5007491;28;20324;-71
2022/12/10 03:35:04;;;;;;;26.67;19.20;;;1.70;99.90;;;;;;5008401;28;20182;-68
2022/12/10 03:37:30;;;;;;;28.35;19.67;;;1.60;99.90;;;;;;5011534;28;20185;-69
2022/12/10 03:39:58;;;;;;;29.65;22.05;;;1.60;99.90;;;;;;5007409;28;20165;-69
2022/12/10 03:42:23;;;;;;;26.70;19.75;;;1.50;99.90;;;;;;5005176;28;20648;-69
2022/12/10 03:44:51;;;;;;;24.90;19.02;;;1.50;99.90;;;;;;5011622;28;20209;-69
2022/12/10 03:47:17;;;;;;;26.67;19.85;;;1.60;99.90;;;;;;5007308;28;20217;-68
2022/12/10 03:49:44;;;;;;;26.42;19.30;;;1.60;99.90;;;;;;5000021;28;20288;-69
2022/12/10 03:52:10;;;;;;;26.75;19.30;;;1.60;99.90;;;;;;5010359;28;20223;-69
2022/12/10 03:54:36;;;;;;;29.40;20.17;;;1.70;99.90;;;;;;5013923;28;20224;-69
2022/12/10 03:57:01;;;;;;;31.98;20.98;;;1.60;99.90;;;;;;5007873;28;20217;-68
2022/12/10 03:59:27;;;;;;;25.35;18.55;;;1.60;99.90;;;;;;5002889;28;20840;-68
2022/12/10 04:01:53;;;;;;;26.90;19.90;;;1.60;99.90;;;;;;5008318;28;20661;-69
2022/12/10 04:04:19;;;;;;;26.27;19.15;;;1.60;99.90;;;;;;5007810;28;20204;-68
2022/12/10 04:06:44;;;;;;;25.48;19.10;;;1.60;99.90;;;;;;5000820;28;20598;-69
2022/12/10 04:09:12;;;;;;;27.58;19.23;;;1.60;99.90;;;;;;5007005;28;20201;-69
2022/12/10 04:11:38;;;;;;;28.95;20.17;;;1.60;99.90;;;;;;5003010;28;20208;-69
2022/12/10 04:16:47;;;;;;;27.52;19.95;;;1.60;99.90;;;;;;4991778;28;20260;-68
2022/12/10 04:19:15;;;;;;;29.83;21.23;;;1.60;99.90;;;;;;5005450;28;20644;-68
2022/12/10 04:27:24;;;;;;;27.77;20.90;;;1.60;99.90;;;;;;5008956;28;20228;-68
2022/12/10 04:29:50;;;;;;;29.93;20.30;;;1.70;99.90;;;;;;5008290;28;20183;-68
2022/12/10 04:32:17;;;;;;;29.17;20.55;;;1.60;99.90;;;;;;4999670;28;20207;-69
2022/12/10 04:34:43;;;;;;;31.52;21.10;;;1.50;99.90;;;;;;5004245;28;20170;-69
2022/12/10 04:37:10;;;;;;;28.80;19.70;;;1.50;99.90;;;;;;5012978;28;20590;-70
2022/12/10 04:39:37;;;;;;;28.17;20.08;;;1.50;99.90;;;;;;5001436;28;20174;-68
2022/12/10 04:42:04;;;;;;;31.55;20.90;;;1.60;99.90;;;;;;5003754;28;20220;-68
2022/12/10 04:44:29;;;;;;;28.25;20.10;;;1.60;99.90;;;;;;5004533;28;20177;-69
2022/12/10 04:46:55;;;;;;;28.10;19.67;;;1.50;99.90;;;;;;4999896;28;20648;-68
2022/12/10 04:49:21;;;;;;;31.73;21.87;;;1.50;99.90;;;;;;5007616;28;20288;-69
2022/12/10 04:51:47;;;;;;;28.40;20.47;;;1.50;99.90;;;;;;5005384;28;20188;-68
2022/12/10 04:54:13;;;;;;;27.90;20.48;;;1.50;99.90;;;;;;4999194;28;20182;-68
2022/12/10 04:56:40;;;;;;;32.33;21.60;;;1.60;99.90;;;;;;5007456;28;20178;-69
2022/12/10 04:59:06;;;;;;;30.53;21.93;;;1.70;99.90;;;;;;5002637;28;20222;-67
2022/12/10 05:01:32;;;;;;;28.75;20.38;;;1.60;99.90;;;;;;5004430;28;20181;-69
2022/12/10 05:03:59;;;;;;;32.78;21.30;;;1.70;99.90;;;;;;5004475;28;20322;-69
2022/12/10 05:06:25;;;;;;;26.20;19.83;;;1.70;99.90;;;;;;5005240;28;20622;-68
2022/12/10 05:08:51;;;;;;;30.87;20.90;;;1.60;99.90;;;;;;5001242;28;20237;-68
2022/12/10 05:11:18;;;;;;;33.83;21.83;;;1.50;99.90;;;;;;5004565;28;20190;-68
2022/12/10 05:13:44;;;;;;;30.70;20.35;;;1.50;99.90;;;;;;5005806;28;20205;-69
2022/12/10 05:16:12;;;;;;;32.80;22.05;;;1.50;99.90;;;;;;5003138;28;20186;-69
2022/12/10 05:18:38;;;;;;;31.88;21.88;;;1.50;99.90;;;;;;5005779;28;20201;-68
2022/12/10 05:21:06;;;;;;;33.17;23.88;;;1.40;99.90;;;;;;5009920;28;20676;-70
2022/12/10 05:23:35;;;;;;;30.83;20.92;;;1.50;99.90;;;;;;5010472;28;20182;-69
2022/12/10 05:26:12;;;;;;;32.95;21.38;;;1.50;99.90;;;;;;5010890;28;20176;-69
2022/12/10 05:28:50;;;;;;;32.67;22.40;;;1.50;99.90;;;;;;5000498;28;20209;-69
2022/12/10 05:31:22;;;;;;;36.85;24.05;;;1.40;99.90;;;;;;4997367;28;20185;-69
2022/12/10 05:33:49;;;;;;;37.03;23.90;;;1.40;99.90;;;;;;4998460;28;20606;-69
2022/12/10 05:36:18;;;;;;;34.67;23.17;;;1.50;99.90;;;;;;5002388;28;20193;-69
2022/12/10 05:38:45;;;;;;;33.55;23.00;;;1.50;99.90;;;;;;4998166;28;20210;-69
2022/12/10 05:41:19;;;;;;;30.58;21.25;;;1.60;99.90;;;;;;5001276;28;20542;-68
2022/12/10 05:43:45;;;;;;;34.53;23.00;;;1.60;99.90;;;;;;5003144;28;20310;-69
2022/12/10 05:46:17;;;;;;;32.15;21.92;;;1.60;99.90;;;;;;5000231;28;20197;-69
2022/12/10 05:48:42;;;;;;;31.88;22.33;;;1.60;99.90;;;;;;5010478;28;20205;-69
2022/12/10 05:51:10;;;;;;;31.08;21.08;;;1.70;99.90;;;;;;5009708;28;20228;-69
2022/12/10 05:53:36;;;;;;;33.92;23.33;;;1.70;99.90;;;;;;5003293;28;20209;-69
2022/12/10 05:56:04;;;;;;;30.98;20.85;;;1.80;99.90;;;;;;4998136;28;20186;-69
2022/12/10 05:58:30;;;;;;;33.80;22.73;;;1.80;99.90;;;;;;4999342;28;20193;-69
2022/12/10 06:00:57;;;;;;;32.63;22.48;;;1.70;99.90;;;;;;5000749;28;20674;-69
2022/12/10 06:03:23;;;;;;;33.13;22.92;;;1.70;99.90;;;;;;5001687;28;20235;-67
2022/12/10 06:05:49;;;;;;;37.83;24.52;;;1.70;99.90;;;;;;5006257;28;20186;-68
2022/12/10 06:08:14;;;;;;;34.85;21.92;;;1.80;99.90;;;;;;5007404;28;20228;-69
2022/12/10 06:10:40;;;;;;;33.67;21.98;;;1.70;99.90;;;;;;5002169;28;20542;-69
2022/12/10 06:13:05;;;;;;;34.55;23.42;;;1.80;99.90;;;;;;5005411;28;20288;-68
2022/12/10 06:15:32;;;;;;;42.90;24.20;;;1.90;99.90;;;;;;5004656;28;20267;-69
2022/12/10 06:17:58;;;;;;;35.88;23.50;;;1.90;99.90;;;;;;5001710;28;20201;-68
2022/12/10 06:20:25;;;;;;;31.77;22.30;;;2.00;99.90;;;;;;5007517;28;20276;-68
2022/12/10 06:22:51;;;;;;;35.10;24.20;;;2.10;99.90;;;;;;5010032;28;20181;-68
2022/12/10 06:25:17;;;;;;;32.95;23.42;;;2.20;99.90;;;;;;5006220;28;20185;-68
2022/12/10 06:27:43;;;;;;;35.15;23.55;;;2.10;99.90;;;;;;5001299;28;20608;-68
2022/12/10 06:30:09;;;;;;;33.58;22.95;;;2.00;99.90;;;;;;5009669;28;20200;-68
2022/12/10 06:32:35;;;;;;;36.45;22.90;;;1.90;99.90;;;;;;5005621;28;20715;-68
2022/12/10 06:35:01;;;;;;;31.67;23.05;;;1.90;99.90;;;;;;5006190;28;20216;-68
2022/12/10 06:37:27;;;;;;;37.13;23.88;;;1.80;99.90;;;;;;5009709;28;20201;-68
2022/12/10 06:39:53;;;;;;;36.47;23.70;;;1.80;99.90;;;;;;5010492;28;20178;-68
2022/12/10 06:42:19;;;;;;;32.78;22.80;;;1.70;99.90;;;;;;5003693;28;20186;-67
2022/12/10 06:44:45;;;;;;;36.25;22.80;;;1.70;99.90;;;;;;5002750;28;20690;-68
2022/12/10 06:47:11;;;;;;;30.20;21.10;;;1.60;99.90;;;;;;5001360;28;20189;-67
2022/12/10 06:49:36;;;;;;;32.20;22.48;;;1.70;99.90;;;;;;5008504;28;20182;-68
2022/12/10 06:52:03;;;;;;;40.72;25.92;;;1.70;99.90;;;;;;5005145;28;20217;-68
2022/12/10 06:54:29;;;;;;;35.97;24.27;;;1.60;99.90;;;;;;5001971;28;20231;-69
2022/12/10 06:56:54;;;;;;;39.33;24.65;;;1.50;99.90;;;;;;5007397;28;20185;-69
2022/12/10 06:59:20;;;;;;;34.38;23.33;;;1.50;99.90;;;;;;5008206;28;20347;-69
2022/12/10 07:01:46;;;;;;;35.15;22.73;;;1.60;99.90;;;;;;5007780;28;20186;-69
2022/12/10 07:04:11;;;;;;;37.25;24.38;;;1.60;99.90;;;;;;5002837;28;20177;-69
2022/12/10 07:06:37;;;;;;;36.92;24.58;;;1.60;99.90;;;;;;5003798;28;20185;-71
2022/12/10 07:09:03;;;;;;;34.90;23.92;;;1.60;99.90;;;;;;5000274;28;20206;-70
2022/12/10 07:11:30;;;;;;;40.58;24.75;;;1.70;99.90;;;;;;5000605;28;20181;-71
2022/12/10 07:13:56;;;;;;;33.15;22.52;;;1.70;99.90;;;;;;5002267;28;20211;-69
2022/12/10 07:16:25;;;;;;;38.95;25.58;;;1.60;99.90;;;;;;5005142;28;20178;-69
2022/12/10 07:18:52;;;;;;;36.38;24.65;;;1.60;99.90;;;;;;5000613;28;20276;-70
2022/12/10 07:21:22;;;;;;;38.55;25.23;;;1.60;99.90;;;;;;5002008;28;20177;-69
2022/12/10 07:23:48;;;;;;;31.90;23.00;;;1.60;99.90;;;;;;5004187;28;20643;-71
2022/12/10 07:26:14;;;;;;;37.30;24.90;;;1.70;99.90;;;;;;5005308;28;20734;-72
2022/12/10 07:28:39;;;;;;;36.63;24.60;;;1.70;99.90;;;;;;5007952;28;20201;-70
2022/12/10 07:31:08;;;;;;;39.78;24.52;;;1.70;99.90;;;;;;5003672;28;20184;-71
2022/12/10 07:33:34;;;;;;;40.97;26.58;;;1.60;99.90;;;;;;5005525;28;20205;-70
2022/12/10 07:36:06;;;;;;;44.45;26.67;;;1.60;99.90;;;;;;5009109;28;20178;-70
2022/12/10 07:38:32;;;;;;;38.63;24.90;;;1.60;99.90;;;;;;5006589;28;20230;-70
2022/12/10 07:40:57;;;;;;;37.75;24.58;;;1.70;99.90;;;;;;5009954;28;20672;-70
2022/12/10 07:43:23;;;;;;;38.58;25.05;;;1.70;99.90;;;;;;5003586;28;20242;-70
2022/12/10 07:45:48;;;;;;;37.35;25.08;;;1.80;99.90;;;;;;5010630;28;20204;-70
2022/12/10 07:48:14;;;;;;;37.33;25.35;;;1.90;99.90;;;;;;5006288;28;20204;-70
2022/12/10 07:50:40;;;;;;;37.63;24.50;;;1.90;99.90;;;;;;5004003;28;20188;-70
2022/12/10 07:53:06;;;;;;;37.95;24.65;;;1.80;99.90;;;;;;5007840;28;20287;-69
2022/12/10 07:55:31;;;;;;;36.50;23.15;;;1.80;99.90;;;;;;5001145;28;20215;-72
2022/12/10 07:57:57;;;;;;;36.10;23.17;;;1.90;99.90;;;;;;5010403;28;20197;-71
2022/12/10 08:00:23;;;;;;;37.72;24.85;;;2.00;99.90;;;;;;5008597;28;20190;-71
2022/12/10 08:02:48;;;;;;;35.53;23.70;;;2.10;99.90;;;;;;5003213;28;20263;-72
2022/12/10 08:05:14;;;;;;;36.80;23.55;;;2.10;99.90;;;;;;5008301;28;20196;-71
2022/12/10 08:07:40;;;;;;;39.03;24.67;;;2.10;99.90;;;;;;5001346;28;20275;-71
2022/12/10 08:10:06;;;;;;;35.55;23.25;;;2.10;99.90;;;;;;5001395;28;20185;-72
2022/12/10 08:12:32;;;;;;;35.05;24.10;;;2.20;99.90;;;;;;5004616;28;20208;-72
2022/12/10 08:14:57;;;;;;;34.67;23.65;;;2.20;99.90;;;;;;5002335;28;20307;-72
2022/12/10 08:17:23;;;;;;;34.88;23.90;;;2.10;99.90;;;;;;5003461;28;20559;-73
2022/12/10 08:19:50;;;;;;;36.20;24.80;;;2.00;99.90;;;;;;5006954;28;20263;-73
2022/12/10 08:22:16;;;;;;;36.25;23.95;;;2.00;99.90;;;;;;5005605;28;20182;-73
2022/12/10 08:24:41;;;;;;;40.33;25.05;;;1.90;99.90;;;;;;5007434;28;20194;-73
2022/12/10 08:27:07;;;;;;;38.08;25.33;;;1.90;99.90;;;;;;4999419;28;20185;-73
2022/12/10 08:29:32;;;;;;;37.95;24.80;;;2.00;99.90;;;;;;4999275;28;20178;-73
2022/12/10 08:31:58;;;;;;;35.13;24.92;;;2.00;99.90;;;;;;4999147;28;20268;-75
2022/12/10 08:34:24;;;;;;;37.97;24.17;;;2.00;99.90;;;;;;5001079;28;20651;-75
2022/12/10 08:36:49;;;;;;;39.08;24.42;;;2.00;99.90;;;;;;5001089;28;20220;-77
2022/12/10 08:39:16;;;;;;;39.47;25.10;;;2.20;99.90;;;;;;5005857;28;20208;-74
2022/12/10 08:41:43;;;;;;;31.15;23.42;;;2.20;99.90;;;;;;4996399;28;20177;-74
2022/12/10 08:44:09;;;;;;;36.05;24.85;;;2.30;99.90;;;;;;5002133;28;20277;-75
2022/12/10 08:46:34;;;;;;;35.95;23.75;;;2.30;99.90;;;;;;4998887;28;20300;-73
2022/12/10 08:49:00;;;;;;;37.42;25.48;;;2.30;99.90;;;;;;5017769;28;20235;-72
2022/12/10 08:51:26;;;;;;;38.20;24.27;;;2.30;99.90;;;;;;5009769;28;20185;-72
2022/12/10 08:53:52;;;;;;;36.35;23.83;;;2.40;99.90;;;;;;5008873;28;20219;-72
2022/12/10 08:56:17;;;;;;;35.30;23.88;;;2.40;99.90;;;;;;5008898;28;20275;-73
2022/12/10 08:58:43;;;;;;;36.13;24.85;;;2.50;99.90;;;;;;5015592;28;20189;-73
2022/12/10 09:01:11;;;;;;;35.22;23.67;;;2.60;99.90;;;;;;5011887;28;20204;-72
2022/12/10 09:03:37;;;;;;;32.45;22.88;;;2.60;99.90;;;;;;5008212;28;20192;-73
2022/12/10 09:06:11;;;;;;;34.00;22.95;;;2.60;99.90;;;;;;5003029;28;20197;-72
2022/12/10 09:08:37;;;;;;;33.78;22.02;;;2.80;99.90;;;;;;5000742;28;20213;-72
2022/12/10 09:11:06;;;;;;;32.83;22.10;;;2.90;99.90;;;;;;5001131;28;20280;-72
2022/12/10 09:13:32;;;;;;;35.03;24.33;;;3.00;99.90;;;;;;5003086;28;20209;-72
2022/12/10 09:15:57;;;;;;;34.10;23.60;;;3.00;99.90;;;;;;5007373;28;20252;-74
2022/12/10 09:18:23;;;;;;;35.90;24.08;;;3.00;99.90;;;;;;5011110;28;20209;-74
2022/12/10 09:20:48;;;;;;;31.55;22.55;;;3.00;99.90;;;;;;5010437;28;20224;-71
2022/12/10 09:23:14;;;;;;;34.00;22.50;;;3.00;99.90;;;;;;5005045;28;20185;-73
2022/12/10 09:25:39;;;;;;;31.33;22.98;;;3.10;99.90;;;;;;5003916;28;20212;-73
2022/12/10 09:28:05;;;;;;;30.92;21.88;;;3.00;99.90;;;;;;5011985;28;20212;-74
2022/12/10 09:30:30;;;;;;;36.22;23.65;;;2.90;99.90;;;;;;5009180;28;20670;-76
2022/12/10 09:32:56;;;;;;;36.20;24.33;;;2.80;99.90;;;;;;5003774;28;20220;-74
2022/12/10 09:35:22;;;;;;;32.38;23.58;;;2.70;99.90;;;;;;5005708;28;20186;-74
2022/12/10 09:37:47;;;;;;;32.95;22.92;;;2.60;99.90;;;;;;5007824;28;20205;-74
2022/12/10 09:40:16;;;;;;;32.17;22.40;;;2.60;99.90;;;;;;5007554;28;20193;-74
2022/12/10 09:43:05;;;;;;;35.08;23.92;;;2.60;99.90;;;;;;5008210;28;20177;-83
2022/12/10 09:45:45;;;;;;;34.08;22.08;;;2.60;99.90;;;;;;5005607;28;20231;-81
2022/12/10 09:48:25;;;;;;;34.25;22.25;;;2.50;99.90;;;;;;5005026;28;20204;-79
2022/12/10 09:51:05;;;;;;;32.75;22.63;;;2.70;99.90;;;;;;5003683;28;20246;-78
2022/12/10 09:53:32;;;;;;;32.22;21.92;;;2.80;99.90;;;;;;5006764;28;20291;-74
2022/12/10 09:55:58;;;;;;;30.77;21.98;;;3.00;99.90;;;;;;5009816;28;20176;-73
2022/12/10 09:58:26;;;;;;;31.20;22.17;;;3.20;99.90;;;;;;5010830;28;20668;-75
2022/12/10 10:01:05;;;;;;;31.23;22.90;;;3.50;99.90;;;;;;5000972;28;20310;-75
2022/12/10 10:03:37;;;;;;;29.90;22.05;;;3.80;99.90;;;;;;4998977;28;20202;-75
2022/12/10 10:06:03;;;;;;;31.23;21.95;;;3.90;99.90;;;;;;5006791;28;20263;-76
2022/12/10 10:08:33;;;;;;;29.85;21.85;;;4.10;99.90;;;;;;5003454;28;20214;-75
2022/12/10 10:11:03;;;;;;;30.63;21.75;;;4.00;99.90;;;;;;5004337;28;20680;-73
2022/12/10 10:14:06;;;;;;;30.92;22.33;;;3.80;99.90;;;;;;5003555;28;20240;-73
2022/12/10 10:16:37;;;;;;;30.63;23.15;;;3.70;99.90;;;;;;4952348;28;20175;-73
2022/12/10 10:19:10;;;;;;;33.90;22.60;;;3.50;99.90;;;;;;4995477;28;20300;-75
2022/12/10 10:21:39;;;;;;;30.98;21.63;;;3.60;99.90;;;;;;4999752;28;20645;-74
2022/12/10 10:24:06;;;;;;;34.22;22.23;;;3.60;99.90;;;;;;5003571;28;20664;-74
2022/12/10 10:26:32;;;;;;;33.20;22.65;;;3.70;99.90;;;;;;5000249;28;20235;-72
2022/12/10 10:29:05;;;;;;;26.90;18.95;;;3.70;99.90;;;;;;5004754;28;20558;-73
2022/12/10 10:31:33;;;;;;;31.77;22.98;;;3.80;99.90;;;;;;5001278;28;20185;-74
2022/12/10 10:34:02;;;;;;;29.58;22.75;;;3.80;99.90;;;;;;5003245;28;20759;-72
2022/12/10 10:36:31;;;;;;;29.33;20.85;;;3.60;99.90;;;;;;4999584;28;20212;-74
2022/12/10 10:39:06;;;;;;;30.50;22.65;;;3.70;99.90;;;;;;5012006;28;20276;-73
2022/12/10 10:41:39;;;;;;;31.08;22.35;;;3.70;99.90;;;;;;5008007;28;20224;-74
2022/12/10 10:44:12;;;;;;;32.30;21.63;;;3.70;99.90;;;;;;5010551;28;20185;-72
2022/12/10 10:46:40;;;;;;;29.88;22.10;;;3.50;99.90;;;;;;5003562;28;20174;-73
2022/12/10 10:49:14;;;;;;;36.30;22.60;;;3.40;99.90;;;;;;5004226;28;20217;-72
2022/12/10 10:51:44;;;;;;;33.40;21.55;;;3.40;99.90;;;;;;5005684;28;20213;-74
2022/12/10 10:54:11;;;;;;;30.80;22.05;;;3.40;99.90;;;;;;5007797;28;20607;-73
2022/12/10 10:56:43;;;;;;;31.80;22.10;;;3.30;99.90;;;;;;5005831;28;20708;-76
2022/12/10 10:59:16;;;;;;;31.55;22.23;;;3.20;99.90;;;;;;5006272;28;20200;-75
2022/12/10 11:01:47;;;;;;;31.33;22.27;;;3.40;99.90;;;;;;5004606;28;20197;-74
2022/12/10 11:04:15;;;;;;;32.60;22.38;;;3.50;99.90;;;;;;5005947;28;20189;-74
2022/12/10 11:06:41;;;;;;;33.05;21.75;;;3.70;99.90;;;;;;5011609;28;20276;-76
2022/12/10 11:09:08;;;;;;;31.30;21.55;;;3.90;99.90;;;;;;5006644;28;20699;-76
2022/12/10 11:11:40;;;;;;;33.10;22.02;;;4.00;99.90;;;;;;4998657;28;20194;-76
2022/12/10 11:14:23;;;;;;;27.77;20.60;;;4.00;99.90;;;;;;5004152;28;20823;-77
2022/12/10 11:16:49;;;;;;;32.97;21.58;;;4.00;99.90;;;;;;5004017;28;20257;-79
2022/12/10 11:19:23;;;;;;;30.40;21.63;;;4.00;99.90;;;;;;5011720;28;20293;-76
2022/12/10 11:21:49;;;;;;;30.58;21.13;;;4.00;99.90;;;;;;5001091;28;20557;-77
2022/12/10 11:24:18;;;;;;;30.48;21.98;;;4.00;99.90;;;;;;5010761;28;20644;-73
2022/12/10 11:27:09;;;;;;;32.33;22.67;;;4.30;99.90;;;;;;5006332;28;20286;-73
2022/12/10 11:30:13;;;;;;;28.92;20.13;;;4.30;99.90;;;;;;5001138;28;20557;-73
2022/12/10 11:32:44;;;;;;;31.63;20.55;;;4.50;99.90;;;;;;4972449;28;20249;-73
2022/12/10 11:35:34;;;;;;;29.60;21.15;;;4.50;99.90;;;;;;5011819;28;20245;-72
2022/12/10 11:38:06;;;;;;;32.75;21.92;;;4.60;99.90;;;;;;4999678;28;20664;-72
2022/12/10 11:40:42;;;;;;;27.48;21.35;;;4.60;99.90;;;;;;5006501;28;20181;-73
2022/12/10 11:43:14;;;;;;;29.40;20.90;;;4.50;99.90;;;;;;5003504;28;20181;-72
2022/12/10 11:45:47;;;;;;;33.63;23.20;;;4.60;99.90;;;;;;4998179;28;20232;-73
2022/12/10 11:48:34;;;;;;;29.75;21.13;;;4.70;99.90;;;;;;5008411;28;20278;-73
2022/12/10 11:51:00;;;;;;;25.83;19.45;;;4.70;99.90;;;;;;5003099;28;20687;-74
2022/12/10 11:53:48;;;;;;;28.83;20.42;;;4.80;99.90;;;;;;5009832;28;20201;-75
2022/12/10 11:56:43;;;;;;;26.98;18.85;;;4.90;99.90;;;;;;5005098;28;20185;-74
2022/12/10 11:59:31;;;;;;;27.23;20.25;;;5.10;99.90;;;;;;4992642;28;20217;-75
2022/12/10 12:02:34;;;;;;;28.80;21.00;;;5.10;99.90;;;;;;5003033;28;20174;-75
2022/12/10 12:05:15;;;;;;;30.27;21.45;;;5.10;99.90;;;;;;5003286;28;20264;-75
2022/12/10 12:07:56;;;;;;;26.20;19.77;;;4.90;99.90;;;;;;4999256;28;20299;-75
2022/12/10 12:10:38;;;;;;;29.08;20.13;;;4.60;99.90;;;;;;5006524;28;20188;-75
2022/12/10 12:13:16;;;;;;;24.88;18.90;;;4.70;99.90;;;;;;5010568;28;20206;-75
2022/12/10 12:15:45;;;;;;;26.88;19.65;;;4.90;99.90;;;;;;5007361;28;20219;-74
2022/12/10 12:18:13;;;;;;;25.45;18.17;;;4.80;99.90;;;;;;5003575;28;20201;-74
2022/12/10 12:21:01;;;;;;;23.83;18.80;;;4.90;99.90;;;;;;5003377;28;20213;-74
2022/12/10 12:23:50;;;;;;;26.17;20.27;;;5.10;99.90;;;;;;5001475;28;20185;-73
2022/12/10 12:26:29;;;;;;;28.05;20.33;;;5.20;99.90;;;;;;4994501;28;20664;-74
2022/12/10 12:29:00;;;;;;;26.95;19.20;;;5.10;99.90;;;;;;5001199;28;20205;-74
2022/12/10 12:31:37;;;;;;;27.65;19.67;;;5.10;99.90;;;;;;5002260;28;20182;-74
2022/12/10 12:34:37;;;;;;;26.17;19.58;;;5.00;99.90;;;;;;5007065;28;20626;-74
2022/12/10 12:37:03;;;;;;;27.13;19.45;;;5.10;99.90;;;;;;5004593;28;20185;-74
2022/12/10 12:39:50;;;;;;;25.98;20.60;;;5.10;99.90;;;;;;4999520;28;20242;-73
2022/12/10 12:42:35;;;;;;;22.80;18.60;;;5.20;99.90;;;;;;5002748;28;20656;-73
2022/12/10 12:45:13;;;;;;;26.77;19.92;;;5.30;99.90;;;;;;5001330;28;20200;-74
2022/12/10 12:47:45;;;;;;;25.50;19.73;;;5.30;99.90;;;;;;4997666;28;20260;-74
2022/12/10 12:50:42;;;;;;;25.38;18.95;;;5.20;99.90;;;;;;5000996;28;20231;-73
2022/12/10 12:53:12;;;;;;;22.90;17.73;;;5.00;99.90;;;;;;4990552;28;20572;-73
2022/12/10 12:56:10;;;;;;;26.10;19.38;;;5.20;99.90;;;;;;5001997;28;20708;-73
2022/12/10 12:58:36;;;;;;;26.60;19.05;;;5.40;99.90;;;;;;5001540;28;20251;-73
2022/12/10 13:01:39;;;;;;;27.13;19.77;;;5.50;99.90;;;;;;5002293;28;20174;-73